Gibson, Mississippi
Current Conditions -  °F | °C
As of 1:35 PM on Saturday 25 Oct 2014 (Local Time) from KM40 Reporting Station
Clear Clear  
Wind Chill: 82°   Ceiling: Unl
Heat Index: 85°   Visibility: 8mi
Dew Point: 66°   Wind: 7mph
Humidity: 58%   Direction: 270°W
Pressure: 30.08"   Gusts: NA
Location:  33.8251°N, 88.6185°W
Report Text: KM40 251835Z AUTO 27006KT 8SM CLR 28/19 A3008 RMK AO2
Loading
Personal Weather Stations






























Interactive Weather Map
Tropical Storm Tracking
New forecast layout! Learn more

10-Day Weather Forecast

Advertisements
Track Severe Weather on mobile